This is the latest recevied weather packets stored in our database for station/object NO3U. If no packets are shown the sender has not sent any weather packets the latest 10 day(s).
| Time | Temp. | Humidity | Pressure | Rain* | Wind** | Luminosity | Snow |
|---|---|---|---|---|---|---|---|
| 1777747706 | 6.67° C | 76% | 1016.9 hPa | 0 mm | - | 142 W/m² | - |
| 1777747401 | 7.22° C | 75% | 1017 hPa | 0 mm | - | 173 W/m² | - |
| 1777747098 | 6.67° C | 78% | 1017.1 hPa | 0 mm | - | 789 W/m² | - |
| 1777746794 | 6.67° C | 80% | 1017.3 hPa | 0 mm | - | 136 W/m² | - |
| 1777746489 | 6.11° C | 84% | 1016.9 hPa | 0 mm | - | 132 W/m² | - |
| 1777746185 | 6.67° C | 81% | 1017 hPa | 0 mm | - | 250 W/m² | - |
| 1777745882 | 6.67° C | 81% | 1017.2 hPa | 0 mm | - | 587 W/m² | - |
| 1777745576 | 6.67° C | 80% | 1017 hPa | 0 mm | - | 439 W/m² | - |
| 1777745273 | 6.67° C | 78% | 1017 hPa | 0 mm | - | 191 W/m² | - |
| 1777744969 | 6.67° C | 81% | 1017 hPa | 0 mm | - | 260 W/m² | - |
| 1777744663 | 6.11° C | 81% | 1017.2 hPa | 0 mm | - | 299 W/m² | - |
| 1777744353 | 6.67° C | 80% | 1017.2 hPa | 0 mm | - | 297 W/m² | - |
| 1777744050 | 6.11° C | 84% | 1017.1 hPa | 0 mm | - | 282 W/m² | - |
| 1777743747 | 5.56° C | 85% | 1017.1 hPa | 0 mm | - | 156 W/m² | - |
| 1777743444 | 5.56° C | 84% | 1017.3 hPa | 0 mm | - | 103 W/m² | - |
| 1777743141 | 5° C | 87% | 1017 hPa | 0 mm | - | 122 W/m² | - |
| 1777742840 | 5° C | 86% | 1017 hPa | 0 mm | - | 84 W/m² | - |
| 1777742535 | 5.56° C | 84% | 1017 hPa | 0 mm | - | 75 W/m² | - |
| 1777742231 | 5.56° C | 85% | 1016.9 hPa | 0 mm | - | 167 W/m² | - |
| 1777741928 | 5.56° C | 84% | 1017 hPa | 0 mm | - | 205 W/m² | - |
| 1777741624 | 5.56° C | 85% | 1017.2 hPa | 0 mm | - | 191 W/m² | - |
| 1777741316 | 5° C | 86% | 1017.2 hPa | 0 mm | - | 164 W/m² | - |
| 1777741012 | 5° C | 87% | 1017.3 hPa | 0 mm | - | 173 W/m² | - |
| 1777740709 | 5° C | 88% | 1017.1 hPa | 0 mm | - | 139 W/m² | - |
| 1777740405 | 5° C | 88% | 1017.2 hPa | 0 mm | - | 87 W/m² | - |
* Rain latest hour (hover to see other rain measurements)
** Current wind speed in m/s (hover to see current wind gust speed)